Time;durP1;ratioP1;P1;durP2;ratioP2;P2;SDS_P1;SDS_P2;PMS_P1;PMS_P2;Temp;Humidity;BMP_temperature;BMP_pressure;BME280_temperature;BME280_humidity;BME280_pressure;Samples;Min_cycle;Max_cycle;Signal;HPM_P1;HPM_P2
2024/03/24 00:01:28;;;;;;;3.00;1.75;;;6.20;86.60;;;;;;5069634;28;20020;-67
2024/03/24 00:03:53;;;;;;;3.28;1.60;;;6.30;86.70;;;;;;5075659;28;20021;-66
2024/03/24 00:06:19;;;;;;;3.72;2.30;;;6.20;86.60;;;;;;5069477;28;20016;-66
2024/03/24 00:08:44;;;;;;;3.35;2.15;;;6.30;86.80;;;;;;5077037;28;20028;-66
2024/03/24 00:11:10;;;;;;;3.38;1.98;;;6.20;86.80;;;;;;5072760;28;20031;-65
2024/03/24 00:13:36;;;;;;;3.40;1.80;;;6.30;86.90;;;;;;5073599;28;20028;-67
2024/03/24 00:16:05;;;;;;;2.08;1.42;;;6.30;86.80;;;;;;5069575;28;20077;-66
2024/03/24 00:18:31;;;;;;;2.67;1.60;;;6.30;86.80;;;;;;5067043;28;20035;-66
2024/03/24 00:20:57;;;;;;;2.55;1.70;;;6.40;86.80;;;;;;5071020;28;20024;-66
2024/03/24 00:23:22;;;;;;;2.70;1.70;;;6.40;86.80;;;;;;5065685;28;20537;-66
2024/03/24 00:25:48;;;;;;;2.17;1.60;;;6.40;87.10;;;;;;5071961;28;20021;-67
2024/03/24 00:28:14;;;;;;;2.70;1.73;;;6.40;87.00;;;;;;5073081;28;20025;-66
2024/03/24 00:30:39;;;;;;;2.80;1.90;;;6.40;87.10;;;;;;5067898;28;20383;-65
2024/03/24 00:33:05;;;;;;;3.47;2.05;;;6.40;87.20;;;;;;5067962;28;20458;-66
2024/03/24 00:35:30;;;;;;;2.35;1.80;;;6.40;87.30;;;;;;5071377;28;20028;-67
2024/03/24 00:37:56;;;;;;;3.78;1.60;;;6.50;87.40;;;;;;5065857;28;20028;-65
2024/03/24 00:40:21;;;;;;;4.07;1.88;;;6.50;87.30;;;;;;5074443;28;20024;-66
2024/03/24 00:42:47;;;;;;;2.00;1.73;;;6.50;87.30;;;;;;5071125;28;20069;-67
2024/03/24 00:45:13;;;;;;;2.90;2.42;;;6.50;87.40;;;;;;5067997;28;20024;-67
2024/03/24 00:47:39;;;;;;;3.42;1.98;;;6.50;87.50;;;;;;5069896;28;20485;-66
2024/03/24 00:50:05;;;;;;;3.45;2.17;;;6.60;87.50;;;;;;5075822;28;20033;-66
2024/03/24 00:52:31;;;;;;;2.70;1.90;;;6.60;87.50;;;;;;5071339;28;20099;-68
2024/03/24 00:54:58;;;;;;;3.97;2.13;;;6.60;87.70;;;;;;5071790;28;20244;-67
2024/03/24 00:57:24;;;;;;;2.45;1.90;;;6.60;87.70;;;;;;5067235;28;20024;-66
2024/03/24 00:59:50;;;;;;;4.25;2.10;;;6.60;87.90;;;;;;5071845;28;20039;-67
2024/03/24 01:02:16;;;;;;;2.50;1.77;;;6.60;87.80;;;;;;5070991;28;20017;-67
2024/03/24 01:04:41;;;;;;;3.78;1.80;;;6.70;87.80;;;;;;5068370;28;20424;-67
2024/03/24 01:07:07;;;;;;;3.55;2.33;;;6.70;87.90;;;;;;5070824;28;20033;-67
2024/03/24 01:09:32;;;;;;;4.53;2.10;;;6.70;88.00;;;;;;5070229;28;20017;-67
2024/03/24 01:11:58;;;;;;;2.55;1.80;;;6.70;88.10;;;;;;5067617;28;20518;-67
2024/03/24 01:14:23;;;;;;;5.63;2.42;;;6.70;88.10;;;;;;5065227;28;20103;-66
2024/03/24 01:16:49;;;;;;;4.50;2.58;;;6.70;88.30;;;;;;5071290;28;20017;-67
2024/03/24 01:19:14;;;;;;;4.07;2.28;;;6.70;88.30;;;;;;5026496;28;1115809;-66
2024/03/24 01:21:40;;;;;;;4.30;2.55;;;6.70;88.50;;;;;;5070988;28;20032;-67
2024/03/24 01:24:06;;;;;;;4.03;2.40;;;6.70;88.60;;;;;;5070446;28;20027;-67
2024/03/24 01:26:32;;;;;;;5.93;2.60;;;6.70;88.60;;;;;;5070764;28;20029;-66
2024/03/24 01:28:57;;;;;;;3.40;2.58;;;6.70;88.60;;;;;;5071051;28;20021;-67
2024/03/24 01:31:23;;;;;;;3.08;2.10;;;6.70;88.70;;;;;;5073862;28;20021;-66
2024/03/24 01:33:48;;;;;;;4.35;2.28;;;6.70;88.70;;;;;;5069763;28;20027;-65
2024/03/24 01:36:14;;;;;;;3.92;2.58;;;6.70;88.80;;;;;;5075946;28;20039;-66
2024/03/24 01:38:39;;;;;;;3.80;2.30;;;6.70;89.00;;;;;;5071724;28;20137;-66
2024/03/24 01:41:05;;;;;;;3.85;2.83;;;6.70;89.10;;;;;;5075820;28;20089;-65
2024/03/24 01:43:30;;;;;;;3.05;2.30;;;6.60;89.20;;;;;;5072220;28;20016;-65
2024/03/24 01:45:57;;;;;;;4.70;2.67;;;6.70;89.30;;;;;;5071303;28;20098;-67
2024/03/24 01:48:22;;;;;;;2.25;1.90;;;6.70;89.40;;;;;;5069029;28;20016;-66
2024/03/24 01:50:49;;;;;;;5.40;2.90;;;6.70;89.40;;;;;;5071250;28;20012;-66
2024/03/24 01:53:15;;;;;;;3.35;2.42;;;6.70;89.50;;;;;;5076001;28;20478;-65
2024/03/24 01:55:40;;;;;;;3.40;2.10;;;6.70;89.70;;;;;;5068093;28;20033;-66
2024/03/24 01:58:06;;;;;;;4.35;3.00;;;6.70;89.70;;;;;;5062747;28;20031;-67
2024/03/24 02:00:32;;;;;;;4.30;3.03;;;6.70;89.90;;;;;;5070887;28;20021;-66
2024/03/24 02:02:58;;;;;;;5.82;3.10;;;6.70;90.00;;;;;;5076252;28;20028;-67
2024/03/24 02:05:24;;;;;;;3.53;2.83;;;6.60;90.10;;;;;;5070782;28;20099;-65
2024/03/24 02:07:51;;;;;;;4.57;2.60;;;6.60;90.10;;;;;;5076888;28;20449;-66
2024/03/24 02:10:16;;;;;;;5.00;3.10;;;6.60;90.20;;;;;;5067987;28;20025;-66
2024/03/24 02:12:42;;;;;;;4.72;2.95;;;6.60;90.30;;;;;;5073932;28;20035;-65
2024/03/24 02:15:08;;;;;;;4.63;3.47;;;6.60;90.30;;;;;;5065612;28;20032;-66
2024/03/24 02:17:33;;;;;;;5.63;3.55;;;6.70;90.40;;;;;;5070056;28;20063;-67
2024/03/24 02:19:59;;;;;;;6.97;3.92;;;6.70;90.50;;;;;;5071814;28;20056;-67
2024/03/24 02:22:24;;;;;;;6.00;3.20;;;6.60;90.70;;;;;;5076557;28;20028;-65
2024/03/24 02:24:50;;;;;;;5.40;3.10;;;6.70;90.70;;;;;;5073136;28;20071;-69
2024/03/24 02:27:16;;;;;;;5.90;2.90;;;6.70;90.70;;;;;;5071571;28;20078;-67
2024/03/24 02:29:41;;;;;;;6.53;3.03;;;6.70;90.70;;;;;;5071420;28;20090;-66
2024/03/24 02:32:07;;;;;;;5.68;3.65;;;6.70;90.80;;;;;;5072271;28;20031;-65
2024/03/24 02:34:33;;;;;;;3.85;2.70;;;6.70;90.80;;;;;;5071058;28;20021;-66
2024/03/24 02:36:58;;;;;;;4.30;2.80;;;6.80;90.80;;;;;;5071704;28;20021;-65
2024/03/24 02:39:24;;;;;;;5.53;2.90;;;6.80;90.80;;;;;;5071017;28;20162;-64
2024/03/24 02:41:50;;;;;;;4.30;2.63;;;6.80;90.80;;;;;;5082914;28;20103;-66
2024/03/24 02:44:15;;;;;;;6.25;3.08;;;6.80;90.90;;;;;;5075215;28;20035;-66
2024/03/24 02:46:41;;;;;;;4.15;2.50;;;6.80;90.90;;;;;;5070613;28;20047;-66
2024/03/24 02:49:06;;;;;;;5.28;2.70;;;6.80;90.90;;;;;;5073440;28;20016;-66
2024/03/24 02:51:32;;;;;;;2.35;2.00;;;6.80;90.90;;;;;;5071016;28;20583;-65
2024/03/24 02:53:57;;;;;;;3.63;2.00;;;6.80;90.90;;;;;;5071071;28;20565;-66
2024/03/24 02:56:23;;;;;;;1.90;1.55;;;6.80;90.90;;;;;;5073696;28;20054;-66
2024/03/24 02:58:48;;;;;;;2.08;1.25;;;6.80;91.00;;;;;;5073496;28;20391;-66
2024/03/24 03:01:14;;;;;;;1.30;1.20;;;6.80;91.00;;;;;;5068317;28;20478;-66
2024/03/24 03:03:43;;;;;;;1.80;1.20;;;6.80;91.00;;;;;;5082506;28;20474;-66
2024/03/24 03:06:09;;;;;;;1.95;1.23;;;6.70;91.00;;;;;;5076359;28;20423;-65
2024/03/24 03:08:35;;;;;;;1.10;1.00;;;6.70;91.00;;;;;;5070881;28;20032;-66
2024/03/24 03:11:00;;;;;;;1.17;1.08;;;6.70;91.00;;;;;;5073533;28;20041;-66
2024/03/24 03:13:26;;;;;;;2.25;1.52;;;6.60;91.00;;;;;;5072966;28;20032;-66
2024/03/24 03:15:51;;;;;;;1.95;1.60;;;6.70;91.10;;;;;;5075096;28;20024;-66
2024/03/24 03:18:17;;;;;;;2.80;1.70;;;6.70;91.10;;;;;;5076313;28;20028;-65
2024/03/24 03:20:42;;;;;;;4.45;2.42;;;6.70;91.10;;;;;;5070159;28;20029;-66
2024/03/24 03:23:08;;;;;;;4.07;2.42;;;6.80;91.10;;;;;;5074201;28;20115;-66
2024/03/24 03:25:35;;;;;;;2.97;1.60;;;6.80;91.10;;;;;;5075058;28;20081;-66
2024/03/24 03:28:01;;;;;;;2.25;1.50;;;6.80;91.10;;;;;;5070089;28;20405;-67
2024/03/24 03:30:27;;;;;;;2.72;1.58;;;6.90;91.00;;;;;;5072283;28;20029;-66
2024/03/24 03:32:52;;;;;;;1.85;1.30;;;6.90;91.10;;;;;;5072931;28;20478;-66
2024/03/24 03:35:18;;;;;;;1.70;1.35;;;6.90;91.00;;;;;;5068719;28;20034;-65
2024/03/24 03:37:44;;;;;;;1.60;1.45;;;7.00;91.00;;;;;;5071192;28;20036;-65
2024/03/24 03:40:10;;;;;;;2.45;1.30;;;7.10;90.90;;;;;;5070330;28;20124;-66
2024/03/24 03:42:36;;;;;;;1.60;1.20;;;7.10;90.90;;;;;;5072262;28;20609;-67
2024/03/24 03:45:02;;;;;;;2.03;1.52;;;7.10;90.80;;;;;;5075318;28;20027;-66
2024/03/24 03:47:28;;;;;;;3.00;1.70;;;7.20;90.80;;;;;;5074150;28;20016;-65
2024/03/24 03:49:54;;;;;;;1.58;1.20;;;7.10;90.80;;;;;;5076235;28;20529;-66
2024/03/24 03:52:25;;;;;;;2.35;1.50;;;7.10;90.80;;;;;;5070430;28;20054;-67
2024/03/24 03:54:53;;;;;;;;;;;7.10;90.80;;;;;;5075935;28;20039;-66
2024/03/24 03:57:19;;;;;;;1.35;1.25;;;7.10;90.80;;;;;;5072863;28;19916;-67
2024/03/24 03:59:44;;;;;;;1.38;1.20;;;7.10;90.80;;;;;;5071796;28;20036;-66
2024/03/24 04:02:11;;;;;;;1.67;1.00;;;6.90;90.70;;;;;;5072316;28;20021;-65
2024/03/24 04:04:37;;;;;;;2.53;0.77;;;6.80;90.90;;;;;;5073951;28;20023;-66
2024/03/24 04:07:02;;;;;;;1.92;0.90;;;6.70;91.00;;;;;;5070234;28;20021;-66
2024/03/24 04:09:28;;;;;;;0.70;0.70;;;6.60;91.00;;;;;;5070770;28;20383;-66
2024/03/24 04:11:54;;;;;;;0.82;0.82;;;6.60;91.10;;;;;;5070423;28;20142;-64
2024/03/24 04:14:19;;;;;;;0.60;0.60;;;6.60;91.10;;;;;;5070757;28;20071;-66
2024/03/24 04:16:45;;;;;;;0.70;0.70;;;6.60;91.00;;;;;;5074214;28;20027;-66
2024/03/24 04:19:11;;;;;;;0.70;0.60;;;6.60;91.00;;;;;;5071226;28;20540;-66
2024/03/24 04:21:36;;;;;;;0.75;0.70;;;6.50;91.00;;;;;;5069581;28;20074;-65
2024/03/24 04:24:02;;;;;;;1.00;0.90;;;6.50;91.00;;;;;;5070005;28;20067;-66
2024/03/24 04:26:28;;;;;;;0.80;0.80;;;6.40;91.00;;;;;;5072467;28;20016;-66
2024/03/24 04:28:53;;;;;;;0.82;0.82;;;6.40;91.00;;;;;;5073498;28;20028;-65
2024/03/24 04:31:19;;;;;;;1.33;0.70;;;6.40;91.10;;;;;;5067929;28;20035;-64
2024/03/24 04:33:44;;;;;;;0.88;0.88;;;6.40;91.10;;;;;;5074596;28;20025;-65
2024/03/24 04:36:10;;;;;;;0.60;0.60;;;6.40;91.00;;;;;;5068885;28;20120;-66
2024/03/24 04:38:36;;;;;;;0.70;0.70;;;6.50;91.00;;;;;;5071286;28;20103;-65
2024/03/24 04:41:01;;;;;;;0.80;0.70;;;6.50;91.00;;;;;;5070904;28;20029;-66
2024/03/24 04:43:28;;;;;;;0.70;0.70;;;6.50;91.00;;;;;;5071063;28;20078;-66
2024/03/24 04:45:53;;;;;;;1.17;0.90;;;6.50;91.00;;;;;;5070277;28;20510;-65
2024/03/24 04:48:19;;;;;;;1.88;0.90;;;6.40;90.90;;;;;;5075852;28;20033;-67
2024/03/24 04:50:45;;;;;;;1.00;0.90;;;6.40;91.00;;;;;;5071141;28;20145;-65
2024/03/24 04:53:10;;;;;;;1.50;0.90;;;6.40;90.90;;;;;;5072259;28;20028;-66
2024/03/24 04:55:36;;;;;;;1.20;0.77;;;6.40;90.90;;;;;;5073356;28;20028;-66
2024/03/24 04:58:03;;;;;;;1.25;0.70;;;6.40;90.90;;;;;;5069075;28;20033;-66
2024/03/24 05:00:28;;;;;;;0.85;0.80;;;6.40;90.90;;;;;;5066523;28;20021;-65
2024/03/24 05:02:54;;;;;;;0.80;0.80;;;6.40;90.90;;;;;;5063419;28;20044;-66
2024/03/24 05:05:19;;;;;;;0.63;0.63;;;6.40;90.90;;;;;;5068390;28;20024;-66
2024/03/24 05:07:48;;;;;;;1.08;0.80;;;6.40;90.90;;;;;;5068936;28;20036;-65
2024/03/24 05:10:14;;;;;;;1.10;0.80;;;6.40;90.90;;;;;;5069867;28;20036;-67
2024/03/24 05:12:40;;;;;;;1.67;0.80;;;6.40;90.90;;;;;;5074910;28;20031;-67
2024/03/24 05:15:06;;;;;;;1.25;0.90;;;6.40;90.90;;;;;;5067566;28;20036;-66
2024/03/24 05:17:31;;;;;;;0.68;0.68;;;6.30;90.90;;;;;;5067689;28;20031;-67
2024/03/24 05:19:57;;;;;;;1.60;0.77;;;6.40;90.90;;;;;;5069853;28;20395;-67
2024/03/24 05:22:23;;;;;;;0.93;0.75;;;6.40;91.00;;;;;;5070612;28;20020;-67
2024/03/24 05:24:48;;;;;;;1.30;0.75;;;6.30;91.00;;;;;;5070461;28;20020;-67
2024/03/24 05:27:16;;;;;;;0.60;0.60;;;6.30;91.00;;;;;;5068204;28;20028;-67
2024/03/24 05:29:41;;;;;;;0.80;0.80;;;6.30;91.00;;;;;;5074398;28;20028;-66
2024/03/24 05:32:07;;;;;;;0.75;0.70;;;6.30;91.00;;;;;;5068598;28;20021;-67
2024/03/24 05:34:32;;;;;;;1.10;0.60;;;6.40;91.00;;;;;;5069847;28;20021;-67
2024/03/24 05:36:59;;;;;;;1.05;0.60;;;6.30;91.00;;;;;;5066980;28;20055;-67
2024/03/24 05:39:25;;;;;;;2.20;0.68;;;6.40;91.00;;;;;;5070000;28;20048;-66
2024/03/24 05:41:51;;;;;;;0.65;0.65;;;6.30;91.00;;;;;;5068389;28;20025;-66
2024/03/24 05:44:17;;;;;;;0.95;0.80;;;6.30;91.00;;;;;;5071739;28;20077;-67
2024/03/24 05:46:43;;;;;;;2.15;0.90;;;6.30;91.00;;;;;;5072964;28;20387;-66
2024/03/24 05:49:12;;;;;;;0.70;0.70;;;6.30;91.10;;;;;;5081438;28;20024;-65
2024/03/24 05:51:38;;;;;;;1.85;0.90;;;6.30;91.10;;;;;;5069794;28;20035;-65
2024/03/24 05:54:05;;;;;;;1.38;0.80;;;6.30;91.10;;;;;;5069504;28;20054;-65
2024/03/24 05:56:31;;;;;;;0.70;0.70;;;6.30;91.00;;;;;;5074806;28;20028;-65
2024/03/24 05:58:57;;;;;;;0.60;0.60;;;6.40;91.00;;;;;;5071905;28;20025;-66
2024/03/24 06:01:23;;;;;;;1.48;0.80;;;6.40;91.10;;;;;;5071065;28;20047;-65
2024/03/24 06:03:50;;;;;;;0.88;0.80;;;6.30;91.10;;;;;;5073316;28;20032;-66
2024/03/24 06:06:17;;;;;;;1.02;0.70;;;6.40;91.10;;;;;;5071447;28;20419;-64
2024/03/24 06:08:42;;;;;;;1.55;0.90;;;6.40;91.00;;;;;;5072841;28;20433;-65
2024/03/24 06:11:08;;;;;;;2.28;1.00;;;6.50;91.00;;;;;;5075164;28;20032;-65
2024/03/24 06:13:33;;;;;;;1.40;0.80;;;6.50;91.00;;;;;;5069198;28;20039;-66
2024/03/24 06:16:01;;;;;;;1.15;0.90;;;6.50;90.90;;;;;;5072535;28;20032;-67
2024/03/24 06:18:27;;;;;;;2.00;1.25;;;6.60;90.90;;;;;;5072495;28;20062;-66
2024/03/24 06:20:53;;;;;;;0.90;0.90;;;6.60;90.90;;;;;;5071265;28;20024;-66
2024/03/24 06:23:19;;;;;;;1.77;1.10;;;6.50;90.90;;;;;;5073517;28;20024;-66
2024/03/24 06:25:44;;;;;;;0.95;0.95;;;6.50;91.00;;;;;;5078554;28;20032;-66
2024/03/24 06:28:10;;;;;;;1.08;0.90;;;6.50;91.10;;;;;;5079247;28;20095;-67
2024/03/24 06:30:35;;;;;;;1.92;1.00;;;6.50;91.10;;;;;;5073685;28;20028;-66
2024/03/24 06:33:01;;;;;;;1.50;0.80;;;6.50;91.10;;;;;;5072091;28;20027;-65
2024/03/24 06:35:27;;;;;;;1.73;1.08;;;6.50;91.10;;;;;;5071057;28;20028;-66
2024/03/24 06:37:52;;;;;;;2.15;0.95;;;6.50;91.10;;;;;;5070335;28;20121;-66
2024/03/24 06:40:18;;;;;;;1.27;0.95;;;6.50;91.10;;;;;;5072859;28;20070;-66
2024/03/24 06:42:44;;;;;;;2.60;0.95;;;6.60;91.10;;;;;;5072640;28;20051;-66
2024/03/24 06:45:11;;;;;;;1.58;0.90;;;6.70;91.00;;;;;;5075921;28;20020;-66
2024/03/24 06:47:37;;;;;;;1.60;1.10;;;6.60;90.90;;;;;;5071787;28;20021;-66
2024/03/24 06:50:05;;;;;;;0.95;0.80;;;6.70;90.90;;;;;;5070648;28;20064;-65
2024/03/24 06:52:30;;;;;;;1.42;1.00;;;6.70;90.90;;;;;;5074131;28;20024;-66
2024/03/24 06:54:56;;;;;;;2.45;1.10;;;6.60;90.90;;;;;;5070927;28;20078;-66
2024/03/24 06:57:21;;;;;;;2.20;1.05;;;6.70;91.00;;;;;;5072697;28;20029;-65
2024/03/24 06:59:47;;;;;;;2.22;1.02;;;6.70;91.00;;;;;;5072549;28;20027;-66
2024/03/24 07:02:13;;;;;;;2.50;1.20;;;6.70;91.00;;;;;;5072737;28;20099;-66
2024/03/24 07:04:39;;;;;;;1.00;1.00;;;6.80;91.00;;;;;;5072056;28;20035;-67
2024/03/24 07:07:04;;;;;;;1.45;0.90;;;6.90;90.90;;;;;;5074802;28;20024;-66
2024/03/24 07:09:30;;;;;;;1.63;1.13;;;6.90;90.90;;;;;;5071475;28;20027;-66
2024/03/24 07:11:56;;;;;;;0.93;0.90;;;7.00;90.80;;;;;;5072367;28;20483;-65
2024/03/24 07:14:22;;;;;;;1.65;1.00;;;7.00;90.80;;;;;;5071019;28;20031;-65
2024/03/24 07:16:47;;;;;;;1.52;1.10;;;7.00;90.80;;;;;;5076664;28;20059;-66
2024/03/24 07:19:13;;;;;;;1.27;1.10;;;7.00;90.80;;;;;;5077128;28;20490;-66
2024/03/24 07:21:38;;;;;;;1.40;1.00;;;7.00;90.90;;;;;;5073768;28;20102;-66
2024/03/24 07:24:05;;;;;;;2.38;1.05;;;6.90;90.90;;;;;;5070710;28;20067;-66
2024/03/24 07:26:30;;;;;;;2.22;1.10;;;6.90;90.90;;;;;;5074020;28;20040;-66
2024/03/24 07:28:56;;;;;;;2.65;1.30;;;6.90;90.90;;;;;;5067691;28;20136;-66
2024/03/24 07:31:22;;;;;;;2.30;1.05;;;7.00;91.00;;;;;;5067952;28;20047;-67
2024/03/24 07:33:47;;;;;;;2.33;1.13;;;7.00;91.00;;;;;;5072831;28;20100;-66
2024/03/24 07:36:13;;;;;;;2.80;1.08;;;7.10;90.90;;;;;;5075830;28;20382;-68
2024/03/24 07:38:39;;;;;;;1.90;1.58;;;7.10;90.90;;;;;;5074213;28;20545;-66
2024/03/24 07:41:04;;;;;;;3.88;1.48;;;7.20;90.90;;;;;;5076590;28;20032;-66
2024/03/24 07:43:30;;;;;;;3.22;1.42;;;7.30;91.00;;;;;;5070248;28;20028;-66
2024/03/24 07:45:56;;;;;;;4.18;1.85;;;7.40;90.90;;;;;;5068049;28;20031;-65
2024/03/24 07:48:22;;;;;;;3.72;1.60;;;7.40;90.80;;;;;;5068788;28;20016;-65
2024/03/24 07:50:47;;;;;;;2.60;1.50;;;7.50;90.90;;;;;;5074024;28;20085;-67
2024/03/24 07:53:13;;;;;;;1.88;1.25;;;7.60;90.90;;;;;;5071655;28;20099;-67
2024/03/24 07:55:43;;;;;;;5.53;1.40;;;7.80;90.70;;;;;;5076179;28;20546;-67
2024/03/24 07:58:08;;;;;;;4.13;1.38;;;7.80;90.60;;;;;;5073108;28;20033;-66
2024/03/24 08:00:34;;;;;;;1.60;0.90;;;7.90;90.50;;;;;;5068280;28;20125;-64
2024/03/24 08:02:59;;;;;;;2.63;1.58;;;8.00;90.40;;;;;;5069683;28;20025;-66
2024/03/24 08:05:25;;;;;;;2.75;1.40;;;8.10;90.30;;;;;;5070345;28;20479;-66
2024/03/24 08:07:50;;;;;;;1.55;1.00;;;8.20;90.20;;;;;;5071469;28;20028;-66
2024/03/24 08:10:16;;;;;;;2.67;1.10;;;8.40;90.20;;;;;;5073913;28;20077;-68
2024/03/24 08:12:42;;;;;;;3.95;1.40;;;8.50;90.10;;;;;;5073352;28;20375;-67
2024/03/24 08:15:07;;;;;;;2.55;1.60;;;8.60;90.00;;;;;;5076972;28;20032;-65
2024/03/24 08:17:33;;;;;;;2.53;1.45;;;8.60;90.20;;;;;;5072004;28;20052;-67
2024/03/24 08:19:59;;;;;;;3.80;1.60;;;8.50;89.80;;;;;;5068908;28;20028;-66
2024/03/24 08:22:24;;;;;;;2.22;1.40;;;8.60;90.00;;;;;;5068611;28;20558;-67
2024/03/24 08:24:50;;;;;;;5.32;1.80;;;8.70;90.00;;;;;;5081559;28;20387;-66
2024/03/24 08:27:15;;;;;;;3.45;1.50;;;8.80;90.00;;;;;;5071664;28;20480;-67
2024/03/24 08:29:41;;;;;;;7.10;2.38;;;8.90;89.80;;;;;;5068618;28;20027;-65
2024/03/24 08:32:07;;;;;;;2.67;1.58;;;9.00;89.60;;;;;;5072647;28;20491;-65
2024/03/24 08:34:32;;;;;;;5.03;1.80;;;9.00;89.40;;;;;;5070630;28;20025;-67
2024/03/24 08:36:58;;;;;;;4.15;1.92;;;8.90;89.60;;;;;;5068431;28;20027;-67
2024/03/24 08:39:23;;;;;;;6.13;2.00;;;8.80;89.70;;;;;;5077839;28;20020;-66
2024/03/24 08:41:49;;;;;;;5.82;1.80;;;8.70;89.80;;;;;;5069478;28;20020;-67
2024/03/24 08:44:15;;;;;;;4.90;1.50;;;8.50;89.90;;;;;;5070275;28;20082;-66
2024/03/24 08:46:40;;;;;;;2.38;1.40;;;8.40;90.10;;;;;;5072743;28;20078;-66
2024/03/24 08:49:06;;;;;;;1.65;1.17;;;8.40;90.20;;;;;;5071869;28;20020;-67
2024/03/24 08:51:32;;;;;;;1.58;1.02;;;8.40;90.30;;;;;;5069766;28;20032;-66
2024/03/24 08:53:57;;;;;;;3.20;1.10;;;8.40;90.20;;;;;;5069782;28;20020;-67
2024/03/24 08:56:23;;;;;;;2.08;1.02;;;8.40;90.20;;;;;;5069734;28;20506;-66
2024/03/24 08:58:48;;;;;;;2.65;1.10;;;8.50;90.20;;;;;;5070486;28;20024;-67
2024/03/24 09:01:14;;;;;;;1.60;0.90;;;8.40;90.10;;;;;;5069994;28;20126;-66
2024/03/24 09:03:39;;;;;;;1.75;1.15;;;8.40;90.20;;;;;;5078961;28;20063;-66
2024/03/24 09:06:06;;;;;;;2.10;1.00;;;8.40;90.20;;;;;;5069519;28;20044;-66
2024/03/24 09:08:33;;;;;;;2.05;1.25;;;8.50;90.20;;;;;;5069609;28;20019;-67
2024/03/24 09:10:58;;;;;;;3.45;1.27;;;8.60;90.10;;;;;;5065251;28;20024;-66
2024/03/24 09:13:24;;;;;;;2.40;1.40;;;8.60;90.10;;;;;;5069866;28;20522;-65
2024/03/24 09:15:50;;;;;;;4.55;1.30;;;8.50;90.10;;;;;;5067618;28;20066;-67
2024/03/24 09:18:16;;;;;;;5.13;1.70;;;8.60;90.20;;;;;;5066425;28;20604;-66
2024/03/24 09:20:41;;;;;;;3.42;1.65;;;8.60;90.10;;;;;;5066095;28;20127;-65
2024/03/24 09:23:07;;;;;;;6.47;1.52;;;8.60;90.20;;;;;;5067378;28;20021;-66
2024/03/24 09:25:33;;;;;;;2.97;1.25;;;8.50;90.10;;;;;;5068360;28;20024;-65
2024/03/24 09:27:59;;;;;;;3.03;1.25;;;8.50;90.10;;;;;;5068261;28;20066;-65
2024/03/24 09:30:25;;;;;;;2.90;1.15;;;8.50;90.10;;;;;;5070208;28;20547;-66
2024/03/24 09:32:51;;;;;;;2.63;1.30;;;8.40;90.10;;;;;;5068161;28;20514;-66
2024/03/24 09:35:17;;;;;;;2.72;1.50;;;8.30;90.10;;;;;;5068320;28;20028;-66
2024/03/24 09:37:43;;;;;;;2.83;1.17;;;8.20;90.20;;;;;;5070757;28;20514;-66
2024/03/24 09:40:09;;;;;;;3.42;1.50;;;8.20;90.20;;;;;;5063107;28;20628;-66
2024/03/24 09:42:36;;;;;;;6.13;1.90;;;8.10;90.30;;;;;;5068981;28;20052;-66
2024/03/24 09:45:06;;;;;;;8.35;1.90;;;8.10;90.20;;;;;;5069093;28;20379;-65
2024/03/24 09:47:36;;;;;;;3.80;1.70;;;8.00;90.30;;;;;;5068773;28;20025;-65
2024/03/24 09:50:02;;;;;;;3.88;1.50;;;7.90;90.40;;;;;;5069455;28;20123;-67
2024/03/24 09:52:32;;;;;;;5.47;1.73;;;8.00;90.50;;;;;;5066237;28;20154;-65
2024/03/24 09:54:58;;;;;;;3.65;1.38;;;8.00;90.50;;;;;;5070848;28;20032;-66
2024/03/24 09:57:35;;;;;;;4.93;1.23;;;7.90;90.40;;;;;;5065141;28;20020;-65
2024/03/24 10:00:05;;;;;;;2.83;1.20;;;7.90;90.50;;;;;;5068517;28;20036;-66
2024/03/24 10:02:31;;;;;;;2.67;1.10;;;7.90;90.60;;;;;;5063895;28;20017;-67
2024/03/24 10:04:58;;;;;;;2.80;1.10;;;7.90;90.60;;;;;;5067963;28;20028;-66
2024/03/24 10:07:23;;;;;;;3.13;1.20;;;7.80;90.60;;;;;;5072133;28;20036;-66
2024/03/24 10:09:49;;;;;;;2.85;1.10;;;7.80;90.70;;;;;;5068160;28;20020;-65
2024/03/24 10:12:15;;;;;;;1.95;1.00;;;7.70;90.70;;;;;;5064872;28;20494;-66
2024/03/24 10:14:41;;;;;;;2.30;0.95;;;7.70;90.80;;;;;;5068918;28;20031;-64
2024/03/24 10:17:16;;;;;;;2.10;1.10;;;7.80;90.80;;;;;;5069553;28;20024;-66
2024/03/24 10:19:53;;;;;;;2.40;0.90;;;7.80;90.80;;;;;;5065448;28;20032;-66
2024/03/24 10:22:19;;;;;;;3.03;0.90;;;8.00;90.80;;;;;;5069467;28;20063;-67
2024/03/24 10:24:45;;;;;;;1.77;0.90;;;8.20;90.70;;;;;;5066157;28;20028;-66
2024/03/24 10:27:12;;;;;;;3.15;1.38;;;8.30;90.60;;;;;;5067672;28;20487;-67
2024/03/24 10:29:38;;;;;;;1.73;1.10;;;8.40;90.60;;;;;;5067808;28;20536;-66
2024/03/24 10:32:05;;;;;;;2.10;1.00;;;8.50;90.50;;;;;;5068900;28;20103;-67
2024/03/24 10:34:35;;;;;;;2.97;1.08;;;8.50;90.40;;;;;;5067430;28;20051;-66
2024/03/24 10:37:01;;;;;;;1.58;1.15;;;8.60;90.40;;;;;;5070757;28;20036;-67
2024/03/24 10:39:27;;;;;;;3.10;0.98;;;8.50;90.30;;;;;;5067598;28;20501;-67
2024/03/24 10:41:54;;;;;;;2.10;0.90;;;8.50;90.40;;;;;;5065439;28;20119;-67
2024/03/24 10:44:21;;;;;;;3.65;1.00;;;8.60;90.40;;;;;;5068809;28;20048;-66
2024/03/24 10:46:48;;;;;;;3.67;1.20;;;8.70;90.50;;;;;;5069880;28;20017;-66
2024/03/24 10:49:20;;;;;;;2.75;1.48;;;8.90;90.40;;;;;;5065576;28;20366;-66
2024/03/24 10:51:49;;;;;;;4.60;1.05;;;8.90;90.30;;;;;;5067066;28;20032;-68
2024/03/24 10:54:17;;;;;;;3.35;1.00;;;8.90;90.20;;;;;;5065924;28;20423;-67
2024/03/24 10:56:43;;;;;;;2.22;0.95;;;9.00;90.30;;;;;;5071357;28;20065;-66
2024/03/24 10:59:09;;;;;;;4.35;1.35;;;9.00;90.20;;;;;;5066404;28;20035;-67
2024/03/24 11:01:35;;;;;;;4.68;1.00;;;9.10;90.20;;;;;;5067719;28;20032;-67
2024/03/24 11:04:03;;;;;;;3.47;1.20;;;9.10;90.10;;;;;;5069321;28;20021;-67
2024/03/24 11:06:30;;;;;;;2.75;1.30;;;9.10;90.10;;;;;;5062835;28;20368;-68
2024/03/24 11:08:56;;;;;;;7.70;1.55;;;9.20;90.10;;;;;;5064722;28;20494;-67
2024/03/24 11:11:22;;;;;;;3.95;1.48;;;9.20;90.10;;;;;;5066626;28;20082;-67
2024/03/24 11:13:50;;;;;;;2.83;1.15;;;9.30;90.10;;;;;;5067154;28;20392;-67
2024/03/24 11:16:19;;;;;;;2.50;1.10;;;9.20;90.10;;;;;;5066652;28;20780;-67
2024/03/24 11:18:45;;;;;;;3.70;1.20;;;9.30;90.10;;;;;;5067077;28;20060;-67
2024/03/24 11:21:34;;;;;;;2.83;1.10;;;9.40;90.10;;;;;;5067374;28;20029;-67
2024/03/24 11:24:00;;;;;;;2.42;1.20;;;9.50;90.00;;;;;;5063553;28;20061;-68
2024/03/24 11:26:29;;;;;;;4.95;1.30;;;9.60;90.00;;;;;;5063934;28;20028;-65
2024/03/24 11:28:55;;;;;;;3.80;1.23;;;9.70;90.00;;;;;;5064692;28;20012;-67
2024/03/24 11:31:21;;;;;;;5.22;1.60;;;9.80;90.20;;;;;;5063590;28;20036;-66
2024/03/24 11:34:08;;;;;;;4.85;1.23;;;9.90;89.50;;;;;;5067646;28;20032;-66
2024/03/24 11:36:38;;;;;;;3.92;1.30;;;10.00;89.40;;;;;;5064303;28;20029;-67
2024/03/24 11:39:09;;;;;;;4.53;1.50;;;10.00;89.00;;;;;;5063775;28;20070;-68
2024/03/24 11:41:35;;;;;;;2.77;1.20;;;10.00;88.90;;;;;;5069090;28;20052;-66
2024/03/24 11:44:06;;;;;;;4.95;1.25;;;9.90;88.90;;;;;;5067221;28;20513;-66
2024/03/24 11:46:34;;;;;;;4.53;1.63;;;9.80;88.90;;;;;;5064046;28;20023;-67
2024/03/24 11:49:02;;;;;;;5.45;1.52;;;9.80;89.20;;;;;;5066978;28;20035;-67
2024/03/24 11:51:30;;;;;;;3.97;1.35;;;9.80;89.30;;;;;;5066485;28;20032;-66
2024/03/24 11:53:56;;;;;;;5.63;1.25;;;9.80;89.30;;;;;;5066607;28;20052;-66
2024/03/24 11:56:23;;;;;;;5.38;1.42;;;9.60;89.20;;;;;;5067865;28;20129;-67
2024/03/24 11:58:52;;;;;;;3.70;1.20;;;9.60;89.30;;;;;;5065409;28;20029;-66
2024/03/24 12:01:18;;;;;;;4.38;1.20;;;9.70;89.40;;;;;;5069251;28;20032;-66
2024/03/24 12:03:44;;;;;;;3.50;1.30;;;9.80;89.30;;;;;;5062769;28;20063;-66
2024/03/24 12:06:14;;;;;;;7.70;1.67;;;9.90;88.90;;;;;;5067310;28;20064;-67
2024/03/24 12:08:41;;;;;;;4.70;1.23;;;9.80;88.50;;;;;;5063160;28;20495;-67
2024/03/24 12:11:08;;;;;;;5.00;1.40;;;9.80;88.50;;;;;;5065052;28;20028;-67
2024/03/24 12:13:35;;;;;;;3.63;1.40;;;9.70;88.40;;;;;;5067435;28;20422;-66
2024/03/24 12:16:00;;;;;;;3.28;1.42;;;9.60;88.60;;;;;;5065793;28;20422;-66
2024/03/24 12:18:26;;;;;;;4.65;1.33;;;9.60;88.40;;;;;;5064034;28;20074;-67
2024/03/24 12:20:52;;;;;;;4.20;1.30;;;9.60;88.70;;;;;;5065216;28;20426;-67
2024/03/24 12:23:19;;;;;;;2.08;1.10;;;9.70;88.70;;;;;;5065722;28;20048;-68
2024/03/24 12:25:47;;;;;;;3.38;1.10;;;9.80;88.70;;;;;;5065687;28;20060;-67
2024/03/24 12:28:17;;;;;;;4.93;1.20;;;9.80;88.60;;;;;;5066658;28;20514;-66
2024/03/24 12:30:53;;;;;;;3.10;1.33;;;9.90;88.40;;;;;;5062332;28;20028;-67
2024/03/24 12:33:23;;;;;;;5.20;1.50;;;10.00;88.10;;;;;;5066627;28;20085;-65
2024/03/24 12:35:50;;;;;;;3.17;1.05;;;10.10;87.90;;;;;;5066284;28;20017;-67
2024/03/24 12:38:18;;;;;;;4.10;1.10;;;10.20;87.90;;;;;;5065358;28;20130;-64
2024/03/24 12:40:57;;;;;;;4.25;1.27;;;10.50;87.80;;;;;;5064430;28;20086;-64
2024/03/24 12:43:29;;;;;;;4.65;1.38;;;10.70;87.30;;;;;;5066631;28;20020;-65
2024/03/24 12:46:02;;;;;;;3.13;1.10;;;10.90;86.70;;;;;;5065186;28;20036;-65
2024/03/24 12:48:28;;;;;;;2.63;1.02;;;11.10;86.30;;;;;;5064283;28;20474;-64
2024/03/24 12:50:58;;;;;;;3.63;1.27;;;11.10;85.80;;;;;;5065774;28;20051;-65
2024/03/24 12:53:26;;;;;;;6.75;1.40;;;11.00;85.70;;;;;;5063635;28;20036;-66